sensor_id;sensor_type;location;lat;lon;timestamp;pressure;altitude;pressure_sealevel;temperature;humidity
10897;BME280;5501;51.176;6.470;2023-05-08T00:00:06;101431.84;;;17.35;100.00
10897;BME280;5501;51.176;6.470;2023-05-08T00:05:08;101429.72;;;17.43;100.00
10897;BME280;5501;51.176;6.470;2023-05-08T00:10:10;101422.31;;;17.48;100.00
10897;BME280;5501;51.176;6.470;2023-05-08T00:15:12;101420.41;;;17.50;100.00
10897;BME280;5501;51.176;6.470;2023-05-08T00:20:13;101440.13;;;17.51;100.00
10897;BME280;5501;51.176;6.470;2023-05-08T00:25:15;101435.13;;;17.22;100.00
10897;BME280;5501;51.176;6.470;2023-05-08T00:30:16;101430.00;;;17.36;100.00
10897;BME280;5501;51.176;6.470;2023-05-08T00:35:18;101424.50;;;17.19;100.00
10897;BME280;5501;51.176;6.470;2023-05-08T00:40:19;101435.91;;;17.04;100.00
10897;BME280;5501;51.176;6.470;2023-05-08T00:45:21;101436.38;;;16.93;100.00
10897;BME280;5501;51.176;6.470;2023-05-08T00:50:22;101424.31;;;17.03;100.00
10897;BME280;5501;51.176;6.470;2023-05-08T00:55:24;101432.47;;;17.00;100.00
10897;BME280;5501;51.176;6.470;2023-05-08T01:00:25;101435.25;;;17.19;100.00
10897;BME280;5501;51.176;6.470;2023-05-08T01:05:27;101429.78;;;17.00;100.00
10897;BME280;5501;51.176;6.470;2023-05-08T01:10:31;101444.19;;;16.78;100.00
10897;BME280;5501;51.176;6.470;2023-05-08T01:15:40;101438.81;;;16.99;100.00
10897;BME280;5501;51.176;6.470;2023-05-08T01:21:07;101437.19;;;16.95;100.00
10897;BME280;5501;51.176;6.470;2023-05-08T01:36:53;101444.69;;;16.87;100.00
10897;BME280;5501;51.176;6.470;2023-05-08T01:47:04;101451.31;;;16.79;100.00
10897;BME280;5501;51.176;6.470;2023-05-08T01:52:14;101457.31;;;16.85;100.00
10897;BME280;5501;51.176;6.470;2023-05-08T01:57:18;101465.81;;;16.96;100.00
10897;BME280;5501;51.176;6.470;2023-05-08T02:02:21;101459.88;;;16.88;100.00
10897;BME280;5501;51.176;6.470;2023-05-08T02:07:23;101470.94;;;16.81;100.00
10897;BME280;5501;51.176;6.470;2023-05-08T02:12:26;101477.06;;;16.84;100.00
10897;BME280;5501;51.176;6.470;2023-05-08T02:17:28;101477.69;;;16.48;100.00
10897;BME280;5501;51.176;6.470;2023-05-08T02:22:31;101484.63;;;16.96;100.00
10897;BME280;5501;51.176;6.470;2023-05-08T02:27:32;101481.81;;;16.99;100.00
10897;BME280;5501;51.176;6.470;2023-05-08T02:32:34;101478.69;;;16.88;100.00
10897;BME280;5501;51.176;6.470;2023-05-08T02:37:36;101478.16;;;17.00;100.00
10897;BME280;5501;51.176;6.470;2023-05-08T02:42:39;101476.13;;;16.85;100.00
10897;BME280;5501;51.176;6.470;2023-05-08T02:47:43;101481.81;;;16.99;100.00
10897;BME280;5501;51.176;6.470;2023-05-08T02:52:48;101473.06;;;16.94;100.00
10897;BME280;5501;51.176;6.470;2023-05-08T02:58:15;101469.63;;;16.69;100.00
10897;BME280;5501;51.176;6.470;2023-05-08T03:03:25;101471.06;;;16.56;100.00
10897;BME280;5501;51.176;6.470;2023-05-08T03:08:29;101463.13;;;16.53;100.00
10897;BME280;5501;51.176;6.470;2023-05-08T03:13:31;101468.81;;;16.46;100.00
10897;BME280;5501;51.176;6.470;2023-05-08T03:18:35;101462.75;;;16.41;100.00
10897;BME280;5501;51.176;6.470;2023-05-08T03:23:41;101464.56;;;16.39;100.00
10897;BME280;5501;51.176;6.470;2023-05-08T03:28:43;101470.59;;;16.45;100.00
10897;BME280;5501;51.176;6.470;2023-05-08T03:33:47;101466.84;;;16.49;100.00
10897;BME280;5501;51.176;6.470;2023-05-08T03:38:49;101455.22;;;16.50;100.00
10897;BME280;5501;51.176;6.470;2023-05-08T03:43:50;101466.28;;;16.41;100.00
10897;BME280;5501;51.176;6.470;2023-05-08T03:48:52;101468.88;;;16.21;100.00
10897;BME280;5501;51.176;6.470;2023-05-08T03:53:55;101468.25;;;16.36;100.00
10897;BME280;5501;51.176;6.470;2023-05-08T04:04:15;101472.47;;;16.20;100.00
10897;BME280;5501;51.176;6.470;2023-05-08T04:14:21;101478.56;;;16.02;100.00
10897;BME280;5501;51.176;6.470;2023-05-08T04:19:26;101479.91;;;15.91;100.00
10897;BME280;5501;51.176;6.470;2023-05-08T04:24:29;101478.91;;;15.93;100.00
10897;BME280;5501;51.176;6.470;2023-05-08T04:29:33;101479.72;;;15.95;100.00
10897;BME280;5501;51.176;6.470;2023-05-08T04:34:36;101479.19;;;16.09;100.00
10897;BME280;5501;51.176;6.470;2023-05-08T04:39:38;101482.28;;;15.98;100.00
10897;BME280;5501;51.176;6.470;2023-05-08T04:44:42;101491.00;;;15.80;100.00
10897;BME280;5501;51.176;6.470;2023-05-08T04:49:43;101482.19;;;16.01;100.00
10897;BME280;5501;51.176;6.470;2023-05-08T04:54:46;101485.84;;;15.76;100.00
10897;BME280;5501;51.176;6.470;2023-05-08T04:59:47;101496.56;;;15.76;100.00
10897;BME280;5501;51.176;6.470;2023-05-08T05:04:49;101497.22;;;15.82;100.00
10897;BME280;5501;51.176;6.470;2023-05-08T05:09:51;101502.56;;;15.82;100.00
10897;BME280;5501;51.176;6.470;2023-05-08T05:14:53;101503.00;;;15.70;100.00
10897;BME280;5501;51.176;6.470;2023-05-08T05:19:56;101508.88;;;15.81;100.00
10897;BME280;5501;51.176;6.470;2023-05-08T05:24:57;101522.38;;;15.78;100.00
10897;BME280;5501;51.176;6.470;2023-05-08T05:29:59;101520.19;;;15.89;100.00
10897;BME280;5501;51.176;6.470;2023-05-08T05:35:01;101519.59;;;16.04;100.00
10897;BME280;5501;51.176;6.470;2023-05-08T05:40:02;101517.22;;;15.97;100.00
10897;BME280;5501;51.176;6.470;2023-05-08T05:45:06;101522.28;;;15.81;100.00
10897;BME280;5501;51.176;6.470;2023-05-08T05:50:09;101528.25;;;16.12;100.00
10897;BME280;5501;51.176;6.470;2023-05-08T05:55:11;101523.94;;;16.31;100.00
10897;BME280;5501;51.176;6.470;2023-05-08T06:00:14;101531.44;;;16.46;100.00
10897;BME280;5501;51.176;6.470;2023-05-08T06:05:18;101536.19;;;16.61;100.00
10897;BME280;5501;51.176;6.470;2023-05-08T06:10:20;101534.16;;;16.68;100.00
10897;BME280;5501;51.176;6.470;2023-05-08T06:15:22;101542.03;;;16.72;100.00
10897;BME280;5501;51.176;6.470;2023-05-08T06:20:23;101553.69;;;16.94;100.00
10897;BME280;5501;51.176;6.470;2023-05-08T06:25:26;101549.78;;;17.01;100.00
10897;BME280;5501;51.176;6.470;2023-05-08T06:30:28;101549.22;;;16.93;100.00
10897;BME280;5501;51.176;6.470;2023-05-08T06:35:29;101562.28;;;17.02;100.00
10897;BME280;5501;51.176;6.470;2023-05-08T06:40:31;101551.78;;;16.96;100.00
10897;BME280;5501;51.176;6.470;2023-05-08T06:45:32;101555.09;;;17.24;100.00
10897;BME280;5501;51.176;6.470;2023-05-08T06:50:36;101559.59;;;17.45;100.00
10897;BME280;5501;51.176;6.470;2023-05-08T06:55:41;101570.72;;;17.36;100.00
10897;BME280;5501;51.176;6.470;2023-05-08T07:00:42;101567.41;;;17.30;100.00
10897;BME280;5501;51.176;6.470;2023-05-08T07:05:43;101567.16;;;17.14;100.00
10897;BME280;5501;51.176;6.470;2023-05-08T07:10:45;101574.81;;;17.25;100.00
10897;BME280;5501;51.176;6.470;2023-05-08T07:15:46;101585.03;;;17.58;100.00
10897;BME280;5501;51.176;6.470;2023-05-08T07:20:48;101592.63;;;17.49;100.00
10897;BME280;5501;51.176;6.470;2023-05-08T07:25:49;101582.88;;;17.46;100.00
10897;BME280;5501;51.176;6.470;2023-05-08T07:30:50;101593.91;;;17.40;100.00
10897;BME280;5501;51.176;6.470;2023-05-08T07:35:52;101590.56;;;17.55;100.00
10897;BME280;5501;51.176;6.470;2023-05-08T07:40:53;101590.09;;;17.66;100.00
10897;BME280;5501;51.176;6.470;2023-05-08T07:45:57;101586.19;;;17.73;100.00
10897;BME280;5501;51.176;6.470;2023-05-08T07:50:59;101574.94;;;17.83;100.00
10897;BME280;5501;51.176;6.470;2023-05-08T07:56:00;101594.63;;;17.85;100.00
10897;BME280;5501;51.176;6.470;2023-05-08T08:01:02;101585.19;;;17.95;100.00
10897;BME280;5501;51.176;6.470;2023-05-08T08:06:03;101589.00;;;18.10;100.00
10897;BME280;5501;51.176;6.470;2023-05-08T08:11:05;101585.88;;;18.20;100.00
10897;BME280;5501;51.176;6.470;2023-05-08T08:16:07;101579.78;;;18.35;100.00
10897;BME280;5501;51.176;6.470;2023-05-08T08:21:08;101585.78;;;18.60;100.00
10897;BME280;5501;51.176;6.470;2023-05-08T08:26:10;101589.94;;;18.67;100.00
10897;BME280;5501;51.176;6.470;2023-05-08T08:31:11;101585.19;;;18.72;100.00
10897;BME280;5501;51.176;6.470;2023-05-08T08:36:13;101582.16;;;18.98;100.00
10897;BME280;5501;51.176;6.470;2023-05-08T08:41:14;101583.31;;;18.93;98.47
10897;BME280;5501;51.176;6.470;2023-05-08T08:46:16;101584.03;;;18.96;97.43
10897;BME280;5501;51.176;6.470;2023-05-08T08:51:24;101595.25;;;19.06;97.31
10897;BME280;5501;51.176;6.470;2023-05-08T08:56:28;101580.75;;;19.08;96.31
10897;BME280;5501;51.176;6.470;2023-05-08T09:01:32;101592.47;;;19.07;97.98
10897;BME280;5501;51.176;6.470;2023-05-08T09:06:35;101593.88;;;19.51;94.46
10897;BME280;5501;51.176;6.470;2023-05-08T09:11:36;101585.66;;;19.71;90.18
10897;BME280;5501;51.176;6.470;2023-05-08T09:16:38;101588.78;;;19.62;91.30
10897;BME280;5501;51.176;6.470;2023-05-08T09:21:40;101585.78;;;20.02;89.89
10897;BME280;5501;51.176;6.470;2023-05-08T09:26:42;101590.31;;;20.19;88.63
10897;BME280;5501;51.176;6.470;2023-05-08T09:31:44;101580.22;;;20.06;88.04
10897;BME280;5501;51.176;6.470;2023-05-08T09:36:46;101582.38;;;20.16;87.74
10897;BME280;5501;51.176;6.470;2023-05-08T09:41:59;101573.38;;;20.33;86.23
10897;BME280;5501;51.176;6.470;2023-05-08T09:47:10;101570.78;;;20.47;86.47
10897;BME280;5501;51.176;6.470;2023-05-08T09:52:14;101570.03;;;20.28;86.81
10897;BME280;5501;51.176;6.470;2023-05-08T09:57:15;101570.78;;;20.47;87.33
10897;BME280;5501;51.176;6.470;2023-05-08T10:02:17;101577.03;;;19.98;85.14
10897;BME280;5501;51.176;6.470;2023-05-08T10:07:33;101580.69;;;20.31;81.67
10897;BME280;5501;51.176;6.470;2023-05-08T10:12:35;101583.72;;;20.25;84.23
10897;BME280;5501;51.176;6.470;2023-05-08T10:17:50;101570.25;;;20.56;83.37
10897;BME280;5501;51.176;6.470;2023-05-08T10:22:54;101569.44;;;20.71;84.07
10897;BME280;5501;51.176;6.470;2023-05-08T10:28:05;101563.56;;;20.95;83.34
10897;BME280;5501;51.176;6.470;2023-05-08T10:33:08;101555.50;;;21.09;81.82
10897;BME280;5501;51.176;6.470;2023-05-08T10:38:10;101553.91;;;20.90;85.48
10897;BME280;5501;51.176;6.470;2023-05-08T10:43:12;101549.03;;;21.57;81.40
10897;BME280;5501;51.176;6.470;2023-05-08T10:48:18;101545.38;;;21.13;81.78
10897;BME280;5501;51.176;6.470;2023-05-08T10:58:42;101535.91;;;21.65;73.11
10897;BME280;5501;51.176;6.470;2023-05-08T11:03:44;101532.69;;;21.58;76.89
10897;BME280;5501;51.176;6.470;2023-05-08T11:08:47;101536.00;;;21.79;78.61
10897;BME280;5501;51.176;6.470;2023-05-08T11:13:51;101523.66;;;22.17;75.95
10897;BME280;5501;51.176;6.470;2023-05-08T11:24:14;101513.28;;;22.09;74.96
10897;BME280;5501;51.176;6.470;2023-05-08T11:29:16;101522.91;;;21.71;76.20
10897;BME280;5501;51.176;6.470;2023-05-08T11:39:38;101523.03;;;21.84;75.09
10897;BME280;5501;51.176;6.470;2023-05-08T11:44:39;101512.69;;;22.32;72.92
10897;BME280;5501;51.176;6.470;2023-05-08T11:49:41;101510.88;;;22.33;72.08
10897;BME280;5501;51.176;6.470;2023-05-08T11:54:43;101506.81;;;22.40;73.91
10897;BME280;5501;51.176;6.470;2023-05-08T11:59:48;101512.31;;;22.24;75.39
10897;BME280;5501;51.176;6.470;2023-05-08T12:04:49;101515.13;;;22.51;73.91
10897;BME280;5501;51.176;6.470;2023-05-08T12:09:51;101504.09;;;22.12;72.87
10897;BME280;5501;51.176;6.470;2023-05-08T12:14:52;101506.81;;;22.40;73.34
10897;BME280;5501;51.176;6.470;2023-05-08T12:19:54;101510.28;;;22.14;72.03
10897;BME280;5501;51.176;6.470;2023-05-08T12:24:56;101509.31;;;22.01;75.15
10897;BME280;5501;51.176;6.470;2023-05-08T12:29:58;101509.19;;;21.74;74.86
10897;BME280;5501;51.176;6.470;2023-05-08T12:34:59;101496.75;;;22.00;76.60
10897;BME280;5501;51.176;6.470;2023-05-08T12:40:01;101499.06;;;21.92;74.75
10897;BME280;5501;51.176;6.470;2023-05-08T12:45:03;101503.84;;;21.43;77.71
10897;BME280;5501;51.176;6.470;2023-05-08T12:50:04;101506.88;;;21.53;76.36
10897;BME280;5501;51.176;6.470;2023-05-08T12:55:18;101500.38;;;21.55;77.14
10897;BME280;5501;51.176;6.470;2023-05-08T13:00:20;101496.56;;;21.30;77.99
10897;BME280;5501;51.176;6.470;2023-05-08T13:05:22;101491.75;;;21.19;77.19
10897;BME280;5501;51.176;6.470;2023-05-08T13:10:23;101484.47;;;21.06;77.34
10897;BME280;5501;51.176;6.470;2023-05-08T13:15:27;101479.19;;;21.34;77.09
10897;BME280;5501;51.176;6.470;2023-05-08T13:20:29;101478.06;;;21.52;77.15
10897;BME280;5501;51.176;6.470;2023-05-08T13:25:30;101473.88;;;21.46;77.30
10897;BME280;5501;51.176;6.470;2023-05-08T13:30:32;101474.53;;;21.36;76.59
10897;BME280;5501;51.176;6.470;2023-05-08T13:35:34;101483.56;;;21.50;77.14
10897;BME280;5501;51.176;6.470;2023-05-08T13:40:35;101467.69;;;21.74;74.58
10897;BME280;5501;51.176;6.470;2023-05-08T13:45:37;101473.00;;;21.75;74.19
10897;BME280;5501;51.176;6.470;2023-05-08T13:50:38;101474.44;;;21.37;80.71
10897;BME280;5501;51.176;6.470;2023-05-08T13:55:40;101467.72;;;21.29;82.17
10897;BME280;5501;51.176;6.470;2023-05-08T14:00:42;101461.88;;;21.07;84.00
10897;BME280;5501;51.176;6.470;2023-05-08T14:05:43;101465.97;;;21.14;83.25
10897;BME280;5501;51.176;6.470;2023-05-08T14:10:45;101451.81;;;21.09;82.88
10897;BME280;5501;51.176;6.470;2023-05-08T14:15:46;101457.84;;;21.14;83.44
10897;BME280;5501;51.176;6.470;2023-05-08T14:20:48;101459.22;;;20.91;85.58
10897;BME280;5501;51.176;6.470;2023-05-08T14:25:57;101459.50;;;21.01;83.68
10897;BME280;5501;51.176;6.470;2023-05-08T14:30:59;101461.53;;;20.97;85.90
10897;BME280;5501;51.176;6.470;2023-05-08T14:36:00;101461.16;;;20.88;86.75
10897;BME280;5501;51.176;6.470;2023-05-08T14:41:02;101464.75;;;21.04;86.58
10897;BME280;5501;51.176;6.470;2023-05-08T14:46:05;101464.41;;;21.10;86.49
10897;BME280;5501;51.176;6.470;2023-05-08T14:51:06;101462.72;;;21.23;85.83
10897;BME280;5501;51.176;6.470;2023-05-08T14:56:08;101454.53;;;21.38;85.04
10897;BME280;5501;51.176;6.470;2023-05-08T15:01:10;101448.44;;;21.35;83.40
10897;BME280;5501;51.176;6.470;2023-05-08T15:06:11;101446.38;;;21.68;81.08
10897;BME280;5501;51.176;6.470;2023-05-08T15:11:12;101453.28;;;21.44;83.40
10897;BME280;5501;51.176;6.470;2023-05-08T15:16:14;101439.91;;;21.27;80.11
10897;BME280;5501;51.176;6.470;2023-05-08T15:21:15;101441.25;;;21.20;81.92
10897;BME280;5501;51.176;6.470;2023-05-08T15:26:17;101450.25;;;21.34;79.86
10897;BME280;5501;51.176;6.470;2023-05-08T15:31:18;101454.41;;;21.26;76.56
10897;BME280;5501;51.176;6.470;2023-05-08T15:36:20;101437.03;;;21.00;75.78
10897;BME280;5501;51.176;6.470;2023-05-08T15:41:21;101428.81;;;21.02;77.07
10897;BME280;5501;51.176;6.470;2023-05-08T15:46:22;101434.22;;;21.02;76.57
10897;BME280;5501;51.176;6.470;2023-05-08T15:51:24;101434.81;;;21.07;77.50
10897;BME280;5501;51.176;6.470;2023-05-08T15:56:25;101433.13;;;21.20;76.02
10897;BME280;5501;51.176;6.470;2023-05-08T16:01:27;101440.09;;;21.24;75.18
10897;BME280;5501;51.176;6.470;2023-05-08T16:06:28;101436.56;;;21.37;74.31
10897;BME280;5501;51.176;6.470;2023-05-08T16:11:30;101426.03;;;21.47;75.15
10897;BME280;5501;51.176;6.470;2023-05-08T16:16:32;101424.03;;;21.21;75.51
10897;BME280;5501;51.176;6.470;2023-05-08T16:21:33;101431.16;;;21.08;76.31
10897;BME280;5501;51.176;6.470;2023-05-08T16:26:34;101421.47;;;21.04;77.33
10897;BME280;5501;51.176;6.470;2023-05-08T16:31:36;101422.19;;;20.92;77.41
10897;BME280;5501;51.176;6.470;2023-05-08T16:36:37;101416.44;;;20.98;77.36
10897;BME280;5501;51.176;6.470;2023-05-08T16:41:39;101413.53;;;21.01;77.40
10897;BME280;5501;51.176;6.470;2023-05-08T16:46:40;101400.56;;;20.92;77.63
10897;BME280;5501;51.176;6.470;2023-05-08T16:51:42;101408.59;;;20.78;77.58
10897;BME280;5501;51.176;6.470;2023-05-08T16:56:43;101404.44;;;20.57;79.12
10897;BME280;5501;51.176;6.470;2023-05-08T17:01:44;101407.16;;;20.57;79.64
10897;BME280;5501;51.176;6.470;2023-05-08T17:06:46;101403.97;;;20.80;79.92
10897;BME280;5501;51.176;6.470;2023-05-08T17:11:47;101401.63;;;20.74;79.67
10897;BME280;5501;51.176;6.470;2023-05-08T17:16:48;101397.41;;;20.84;78.69
10897;BME280;5501;51.176;6.470;2023-05-08T17:21:50;101400.25;;;20.67;80.01
10897;BME280;5501;51.176;6.470;2023-05-08T17:26:51;101406.03;;;20.61;80.62
10897;BME280;5501;51.176;6.470;2023-05-08T17:31:53;101413.50;;;20.56;80.86
10897;BME280;5501;51.176;6.470;2023-05-08T17:36:54;101411.06;;;20.51;81.10
10897;BME280;5501;51.176;6.470;2023-05-08T17:41:56;101403.41;;;20.59;81.90
10897;BME280;5501;51.176;6.470;2023-05-08T17:46:57;101406.34;;;20.55;82.07
10897;BME280;5501;51.176;6.470;2023-05-08T17:51:58;101411.59;;;20.58;82.44
10897;BME280;5501;51.176;6.470;2023-05-08T17:57:00;101403.47;;;20.58;83.46
10897;BME280;5501;51.176;6.470;2023-05-08T18:02:01;101401.31;;;20.18;84.93
10897;BME280;5501;51.176;6.470;2023-05-08T18:07:03;101395.53;;;20.24;85.83
10897;BME280;5501;51.176;6.470;2023-05-08T18:12:04;101391.63;;;20.14;86.93
10897;BME280;5501;51.176;6.470;2023-05-08T18:17:06;101398.53;;;20.19;86.20
10897;BME280;5501;51.176;6.470;2023-05-08T18:22:08;101403.91;;;20.35;85.93
10897;BME280;5501;51.176;6.470;2023-05-08T18:27:09;101396.06;;;20.15;86.19
10897;BME280;5501;51.176;6.470;2023-05-08T18:32:10;101397.84;;;20.16;87.01
10897;BME280;5501;51.176;6.470;2023-05-08T18:37:12;101394.94;;;20.19;86.81
10897;BME280;5501;51.176;6.470;2023-05-08T18:42:13;101400.94;;;20.24;86.99
10897;BME280;5501;51.176;6.470;2023-05-08T18:47:14;101390.88;;;20.12;88.29
10897;BME280;5501;51.176;6.470;2023-05-08T18:52:16;101400.06;;;20.08;88.21
10897;BME280;5501;51.176;6.470;2023-05-08T18:57:17;101399.84;;;19.79;89.29
10897;BME280;5501;51.176;6.470;2023-05-08T19:02:19;101398.94;;;19.63;90.69
10897;BME280;5501;51.176;6.470;2023-05-08T19:07:20;101391.78;;;19.62;91.05
10897;BME280;5501;51.176;6.470;2023-05-08T19:12:22;101397.16;;;19.62;90.39
10897;BME280;5501;51.176;6.470;2023-05-08T19:17:23;101387.78;;;19.69;89.53
10897;BME280;5501;51.176;6.470;2023-05-08T19:22:25;101392.16;;;19.72;88.79
10897;BME280;5501;51.176;6.470;2023-05-08T19:27:26;101399.97;;;19.61;89.55
10897;BME280;5501;51.176;6.470;2023-05-08T19:32:29;101401.81;;;19.43;90.92
10897;BME280;5501;51.176;6.470;2023-05-08T19:37:30;101395.97;;;19.18;92.35
10897;BME280;5501;51.176;6.470;2023-05-08T19:42:32;101397.84;;;19.16;92.83
10897;BME280;5501;51.176;6.470;2023-05-08T19:47:33;101389.59;;;19.19;93.08
10897;BME280;5501;51.176;6.470;2023-05-08T19:52:35;101391.84;;;18.94;94.29
10897;BME280;5501;51.176;6.470;2023-05-08T19:57:36;101378.97;;;18.99;94.10
10897;BME280;5501;51.176;6.470;2023-05-08T20:02:38;101376.28;;;18.82;94.66
10897;BME280;5501;51.176;6.470;2023-05-08T20:07:39;101384.53;;;18.96;93.64
10897;BME280;5501;51.176;6.470;2023-05-08T20:12:41;101381.19;;;18.91;93.92
10897;BME280;5501;51.176;6.470;2023-05-08T20:17:43;101378.50;;;18.74;94.11
10897;BME280;5501;51.176;6.470;2023-05-08T20:22:45;101381.97;;;18.93;92.34
10897;BME280;5501;51.176;6.470;2023-05-08T20:27:46;101370.91;;;18.82;93.21
10897;BME280;5501;51.176;6.470;2023-05-08T20:32:48;101374.56;;;18.81;92.10
10897;BME280;5501;51.176;6.470;2023-05-08T20:37:49;101375.25;;;18.85;91.62
10897;BME280;5501;51.176;6.470;2023-05-08T20:42:51;101379.75;;;18.67;93.67
10897;BME280;5501;51.176;6.470;2023-05-08T20:47:52;101381.94;;;18.59;94.38
10897;BME280;5501;51.176;6.470;2023-05-08T20:52:53;101365.38;;;18.50;95.15
10897;BME280;5501;51.176;6.470;2023-05-08T20:57:55;101366.72;;;18.41;95.58
10897;BME280;5501;51.176;6.470;2023-05-08T21:02:56;101361.25;;;18.43;95.12
10897;BME280;5501;51.176;6.470;2023-05-08T21:07:58;101352.44;;;18.39;95.55
10897;BME280;5501;51.176;6.470;2023-05-08T21:13:02;101349.13;;;18.51;94.17
10897;BME280;5501;51.176;6.470;2023-05-08T21:18:04;101344.88;;;18.64;93.25
10897;BME280;5501;51.176;6.470;2023-05-08T21:23:06;101357.53;;;18.45;94.03
10897;BME280;5501;51.176;6.470;2023-05-08T21:28:10;101353.03;;;18.63;93.79
10897;BME280;5501;51.176;6.470;2023-05-08T21:33:12;101339.38;;;18.49;94.28
10897;BME280;5501;51.176;6.470;2023-05-08T21:38:14;101343.34;;;18.42;94.21
10897;BME280;5501;51.176;6.470;2023-05-08T21:43:15;101347.00;;;18.22;96.02
10897;BME280;5501;51.176;6.470;2023-05-08T21:48:17;101336.78;;;18.29;95.84
10897;BME280;5501;51.176;6.470;2023-05-08T21:53:18;101338.97;;;18.21;96.77
10897;BME280;5501;51.176;6.470;2023-05-08T21:58:19;101331.03;;;18.36;95.82
10897;BME280;5501;51.176;6.470;2023-05-08T22:03:21;101324.16;;;18.12;97.22
10897;BME280;5501;51.176;6.470;2023-05-08T22:08:23;101332.38;;;18.09;98.80
10897;BME280;5501;51.176;6.470;2023-05-08T22:13:24;101322.63;;;18.25;96.87
10897;BME280;5501;51.176;6.470;2023-05-08T22:18:26;101321.41;;;17.95;99.08
10897;BME280;5501;51.176;6.470;2023-05-08T22:23:27;101310.38;;;18.18;97.67
10897;BME280;5501;51.176;6.470;2023-05-08T22:28:29;101309.44;;;18.19;97.49
10897;BME280;5501;51.176;6.470;2023-05-08T22:33:30;101308.81;;;18.31;97.01
10897;BME280;5501;51.176;6.470;2023-05-08T22:38:34;101309.44;;;18.19;97.52
10897;BME280;5501;51.176;6.470;2023-05-08T22:43:35;101304.94;;;18.20;97.95
10897;BME280;5501;51.176;6.470;2023-05-08T22:48:37;101292.25;;;18.22;97.39
10897;BME280;5501;51.176;6.470;2023-05-08T22:53:38;101306.13;;;17.96;99.59
10897;BME280;5501;51.176;6.470;2023-05-08T22:58:40;101282.50;;;18.19;98.86
10897;BME280;5501;51.176;6.470;2023-05-08T23:03:41;101289.25;;;18.11;98.27
10897;BME280;5501;51.176;6.470;2023-05-08T23:08:42;101278.53;;;17.74;100.00
10897;BME280;5501;51.176;6.470;2023-05-08T23:13:44;101273.28;;;17.89;100.00
10897;BME280;5501;51.176;6.470;2023-05-08T23:18:45;101273.72;;;17.80;100.00
10897;BME280;5501;51.176;6.470;2023-05-08T23:23:47;101262.28;;;17.75;100.00
10897;BME280;5501;51.176;6.470;2023-05-08T23:28:50;101258.41;;;17.99;100.00
10897;BME280;5501;51.176;6.470;2023-05-08T23:33:52;101263.38;;;17.90;100.00
10897;BME280;5501;51.176;6.470;2023-05-08T23:38:54;101244.75;;;17.85;100.00
10897;BME280;5501;51.176;6.470;2023-05-08T23:43:55;101237.88;;;17.97;100.00
10897;BME280;5501;51.176;6.470;2023-05-08T23:48:57;101240.66;;;17.95;100.00
10897;BME280;5501;51.176;6.470;2023-05-08T23:53:58;101233.00;;;17.69;100.00
10897;BME280;5501;51.176;6.470;2023-05-08T23:58:59;101221.50;;;17.84;100.00
